Time;durP1;ratioP1;P1;durP2;ratioP2;P2;SDS_P1;SDS_P2;PMS_P1;PMS_P2;Temp;Humidity;BMP_temperature;BMP_pressure;BME280_temperature;BME280_humidity;BME280_pressure;Samples;Min_cycle;Max_cycle;Signal;HPM_P1;HPM_P2
2021/06/27 00:01:00;;;;;;;;;;;;;;;22.53;53.40;101592.59;2196585;39;115043;-54
2021/06/27 00:02:31;;;;;;;;;;;;;;;22.50;53.41;101581.94;2197389;39;113952;-54
2021/06/27 00:04:03;;;;;;;;;;;;;;;22.53;53.41;101586.16;2197064;39;115254;-54
2021/06/27 00:05:36;;;;;;;;;;;;;;;22.53;53.52;101592.59;2195956;39;114994;-53
2021/06/27 00:07:08;;;;;;;;;;;;;;;22.52;53.63;101588.13;2189278;39;115617;-54
2021/06/27 00:08:40;;;;;;;;;;;;;;;22.51;53.44;101585.59;2185837;39;114918;-55
2021/06/27 00:10:14;;;;;;;;;;;;;;;22.52;53.64;101587.28;2181165;39;115034;-54
2021/06/27 00:11:46;;;;;;;;;;;;;;;22.52;53.65;101592.91;2193648;39;114803;-54
2021/06/27 00:13:18;;;;;;;;;;;;;;;22.49;53.69;101593.50;2191637;39;114958;-54
2021/06/27 00:14:49;;;;;;;;;;;;;;;22.52;53.63;101585.31;2188415;39;114843;-54
2021/06/27 00:16:21;;;;;;;;;;;;;;;22.51;53.71;101586.44;2197207;39;115484;-54
2021/06/27 00:17:53;;;;;;;;;;;;;;;22.52;53.84;101581.66;2196168;39;114519;-54
2021/06/27 00:19:25;;;;;;;;;;;;;;;22.52;53.65;101573.19;2196065;39;115748;-53
2021/06/27 00:20:58;;;;;;;;;;;;;;;22.52;53.81;101581.66;2185200;39;115825;-54
2021/06/27 00:22:30;;;;;;;;;;;;;;;22.53;53.71;101583.34;2192768;39;115961;-54
2021/06/27 00:24:02;;;;;;;;;;;;;;;22.53;53.86;101586.16;2200994;39;115490;-54
2021/06/27 00:25:35;;;;;;;;;;;;;;;22.53;53.71;101583.34;2193131;39;115764;-54
2021/06/27 00:27:07;;;;;;;;;;;;;;;22.54;53.79;101576.53;2188765;39;115794;-54
2021/06/27 00:28:39;;;;;;;;;;;;;;;22.53;54.13;101584.13;2197778;39;115669;-53
2021/06/27 00:30:11;;;;;;;;;;;;;;;22.53;54.05;101583.34;2201843;39;115902;-53
2021/06/27 00:31:42;;;;;;;;;;;;;;;22.55;54.04;101579.06;2199638;39;116249;-53
2021/06/27 00:33:14;;;;;;;;;;;;;;;22.53;54.07;101575.69;2198138;39;115463;-54
2021/06/27 00:34:46;;;;;;;;;;;;;;;22.56;54.22;101577.91;2191989;39;115288;-54
2021/06/27 00:36:18;;;;;;;;;;;;;;;22.57;54.34;101575.94;2196739;39;116150;-58
2021/06/27 00:37:49;;;;;;;;;;;;;;;22.56;54.49;101575.09;2190133;39;114320;-54
2021/06/27 00:39:21;;;;;;;;;;;;;;;22.58;54.43;101578.44;2192825;39;114079;-54
2021/06/27 00:40:53;;;;;;;;;;;;;;;22.60;54.26;101589.41;2196172;39;113715;-54
2021/06/27 00:42:25;;;;;;;;;;;;;;;22.58;54.14;101578.44;2186751;39;113879;-53
2021/06/27 00:43:57;;;;;;;;;;;;;;;22.58;54.14;101569.97;2189508;39;113999;-53
2021/06/27 00:45:30;;;;;;;;;;;;;;;22.59;54.12;101573.63;2187780;39;113751;-54
2021/06/27 00:47:02;;;;;;;;;;;;;;;22.59;54.12;101582.91;2194368;39;114945;-54
2021/06/27 00:48:34;;;;;;;;;;;;;;;22.61;54.08;101572.19;2190740;39;113713;-54
2021/06/27 00:50:07;;;;;;;;;;;;;;;22.63;54.21;101574.69;2183423;39;113809;-54
2021/06/27 00:51:39;;;;;;;;;;;;;;;22.61;54.38;101572.19;2194112;39;113684;-54
2021/06/27 00:53:10;;;;;;;;;;;;;;;22.62;54.23;101576.66;2190479;39;114105;-54
2021/06/27 00:54:42;;;;;;;;;;;;;;;22.58;54.32;101575.59;2196765;39;113901;-53
2021/06/27 00:56:14;;;;;;;;;;;;;;;22.63;54.38;101580.31;2189485;39;113949;-54
2021/06/27 00:57:46;;;;;;;;;;;;;;;22.61;54.43;101586.28;2198153;39;113916;-54
2021/06/27 00:59:18;;;;;;;;;;;;;;;22.62;54.39;101581.50;2190922;39;115298;-54
2021/06/27 01:00:50;;;;;;;;;;;;;;;22.62;54.26;101581.50;2188595;39;114916;-54
2021/06/27 01:02:21;;;;;;;;;;;;;;;22.61;54.31;101577.00;2195573;39;115407;-54
2021/06/27 01:03:53;;;;;;;;;;;;;;;22.63;54.39;101575.53;2189910;39;114822;-54
2021/06/27 01:05:26;;;;;;;;;;;;;;;22.61;54.33;101569.38;2195453;39;115609;-54
2021/06/27 01:06:58;;;;;;;;;;;;;;;22.62;54.45;101578.66;2195704;39;115063;-54
2021/06/27 01:08:30;;;;;;;;;;;;;;;22.62;54.55;101575.84;2197976;39;115310;-53
2021/06/27 01:10:02;;;;;;;;;;;;;;;22.63;54.36;101572.72;2199382;39;114998;-54
2021/06/27 01:11:33;;;;;;;;;;;;;;;22.65;54.46;101580.88;2197881;39;114242;-54
2021/06/27 01:13:05;;;;;;;;;;;;;;;22.62;54.60;101581.50;2197916;39;115009;-54
2021/06/27 01:14:37;;;;;;;;;;;;;;;22.62;54.56;101567.41;2188624;39;114128;-53
2021/06/27 01:16:09;;;;;;;;;;;;;;;22.62;54.58;101581.50;2193653;39;114326;-54
2021/06/27 01:17:42;;;;;;;;;;;;;;;22.65;54.93;101582.84;2188790;39;115010;-54
2021/06/27 01:19:14;;;;;;;;;;;;;;;22.63;54.50;101586.78;2190410;39;114516;-53
2021/06/27 01:20:46;;;;;;;;;;;;;;;22.65;54.74;101582.84;2194925;39;115824;-53
2021/06/27 01:22:18;;;;;;;;;;;;;;;22.65;54.89;101583.69;2198174;39;114537;-54
2021/06/27 01:23:50;;;;;;;;;;;;;;;22.65;54.87;101583.69;2191282;39;116431;-54
2021/06/27 01:25:24;;;;;;;;;;;;;;;22.63;54.74;101571.88;2193341;39;115728;-53
2021/06/27 01:26:56;;;;;;;;;;;;;;;22.65;55.03;101568.75;2198252;39;115415;-53
2021/06/27 01:28:27;;;;;;;;;;;;;;;22.66;54.91;101567.63;2189264;39;116006;-54
2021/06/27 01:30:00;;;;;;;;;;;;;;;22.68;55.02;101563.34;2190997;39;115618;-54
2021/06/27 01:31:32;;;;;;;;;;;;;;;22.65;54.92;101560.31;2187376;39;116809;-53
2021/06/27 01:33:05;;;;;;;;;;;;;;;22.66;54.79;101556.34;2193202;39;115580;-54
2021/06/27 01:34:38;;;;;;;;;;;;;;;22.65;54.74;101547.06;2190856;39;115980;-54
2021/06/27 01:36:10;;;;;;;;;;;;;;;22.66;54.74;101542.28;2195248;39;115621;-54
2021/06/27 01:37:43;;;;;;;;;;;;;;;22.65;54.92;101541.44;2197569;39;115455;-53
2021/06/27 01:39:15;;;;;;;;;;;;;;;22.65;54.78;101532.97;2195627;39;115426;-53
2021/06/27 01:40:47;;;;;;;;;;;;;;;22.68;54.56;101535.16;2197743;39;115620;-53
2021/06/27 01:42:21;;;;;;;;;;;;;;;22.68;54.67;101531.50;2198957;39;116379;-54
2021/06/27 01:43:53;;;;;;;;;;;;;;;22.67;54.81;101529.88;2195486;39;114203;-54
2021/06/27 01:45:25;;;;;;;;;;;;;;;22.65;54.53;101527.34;2196072;39;113797;-54
2021/06/27 01:46:57;;;;;;;;;;;;;;;22.69;54.72;101524.75;2195355;39;113817;-54
2021/06/27 01:48:31;;;;;;;;;;;;;;;22.68;54.79;101526.72;2197176;39;114167;-54
2021/06/27 01:50:04;;;;;;;;;;;;;;;22.67;54.69;101522.22;2197059;39;114371;-54
2021/06/27 01:51:36;;;;;;;;;;;;;;;22.71;54.63;101528.13;2187890;39;113887;-54
2021/06/27 01:53:09;;;;;;;;;;;;;;;22.67;54.71;101513.78;2194388;39;113998;-54
2021/06/27 01:54:40;;;;;;;;;;;;;;;22.66;54.81;101523.38;2191129;39;113851;-54
2021/06/27 01:56:12;;;;;;;;;;;;;;;22.69;54.76;101522.75;2194399;39;113937;-54
2021/06/27 01:57:44;;;;;;;;;;;;;;;22.71;54.90;101525.31;2185272;39;114273;-54
2021/06/27 01:59:15;;;;;;;;;;;;;;;22.69;55.00;101514.31;2189775;39;113695;-54
2021/06/27 02:00:47;;;;;;;;;;;;;;;22.70;55.11;101518.00;2192516;39;113680;-54
2021/06/27 02:02:19;;;;;;;;;;;;;;;22.70;55.21;101523.63;2190684;39;114613;-53
2021/06/27 02:03:50;;;;;;;;;;;;;;;22.71;55.23;101525.31;2193169;39;113903;-53
2021/06/27 02:05:22;;;;;;;;;;;;;;;22.70;55.29;101518.00;2196003;39;115066;-53
2021/06/27 02:06:54;;;;;;;;;;;;;;;22.71;55.10;101528.13;2187156;39;115100;-54
2021/06/27 02:08:28;;;;;;;;;;;;;;;22.67;55.30;101525.03;2181927;39;115041;-54
2021/06/27 02:10:01;;;;;;;;;;;;;;;22.67;55.27;101521.41;2190631;39;115364;-54
2021/06/27 02:11:33;;;;;;;;;;;;;;;22.69;55.63;101522.75;2194717;39;115231;-53
2021/06/27 02:13:05;;;;;;;;;;;;;;;22.67;55.39;101512.97;2195078;39;114695;-53
2021/06/27 02:14:37;;;;;;;;;;;;;;;22.69;55.56;101510.66;2187530;39;114958;-54
2021/06/27 02:16:09;;;;;;;;;;;;;;;22.70;55.54;101506.72;2193402;39;115107;-54
2021/06/27 02:17:51;;;;;;;;;;;;;;;22.69;55.44;101508.69;2190827;39;113910;-53
2021/06/27 02:19:22;;;;;;;;;;;;;;;22.72;55.70;101510.06;2195863;39;114833;-53
2021/06/27 02:20:55;;;;;;;;;;;;;;;22.71;55.66;101505.59;2190098;39;115150;-53
2021/06/27 02:22:26;;;;;;;;;;;;;;;22.70;55.59;101498.28;2188232;39;114984;-54
2021/06/27 02:23:58;;;;;;;;;;;;;;;22.71;55.81;101506.44;2189921;39;114976;-53
2021/06/27 02:25:30;;;;;;;;;;;;;;;22.73;55.79;101497.66;2190744;39;115428;-54
2021/06/27 02:27:02;;;;;;;;;;;;;;;22.70;55.79;101504.75;2191162;39;114658;-54
2021/06/27 02:28:34;;;;;;;;;;;;;;;22.71;55.81;101497.97;2198683;39;115762;-54
2021/06/27 02:30:07;;;;;;;;;;;;;;;22.72;55.74;101501.59;2191790;39;114677;-54
2021/06/27 02:31:39;;;;;;;;;;;;;;;22.70;55.82;101501.94;2193839;39;116083;-54
2021/06/27 02:33:11;;;;;;;;;;;;;;;22.72;55.94;101498.78;2197507;39;114569;-54
2021/06/27 02:34:43;;;;;;;;;;;;;;;22.71;55.95;101495.16;2196972;39;115641;-54
2021/06/27 02:36:15;;;;;;;;;;;;;;;22.71;55.94;101499.97;2198507;39;116015;-53
2021/06/27 02:37:47;;;;;;;;;;;;;;;22.72;55.85;101498.78;2199094;39;116027;-54
2021/06/27 02:39:18;;;;;;;;;;;;;;;22.73;55.83;101500.47;2198306;39;116261;-54
2021/06/27 02:40:50;;;;;;;;;;;;;;;22.72;56.09;101496.81;2198067;39;115413;-53
2021/06/27 02:42:22;;;;;;;;;;;;;;;22.72;56.07;101487.53;2191360;39;115419;-55
2021/06/27 02:43:54;;;;;;;;;;;;;;;22.72;56.36;101494.00;2188275;39;115574;-54
2021/06/27 02:45:25;;;;;;;;;;;;;;;22.73;56.33;101486.38;2195377;39;115892;-54
2021/06/27 02:46:57;;;;;;;;;;;;;;;22.71;56.17;101483.06;2192677;39;115586;-53
2021/06/27 02:48:29;;;;;;;;;;;;;;;22.73;56.07;101478.78;2196400;39;113630;-54
2021/06/27 02:50:01;;;;;;;;;;;;;;;22.72;56.13;101481.88;2197422;39;113799;-54
2021/06/27 02:51:33;;;;;;;;;;;;;;;22.73;56.36;101480.75;2197277;39;113735;-54
2021/06/27 02:53:05;;;;;;;;;;;;;;;22.74;56.18;101482.44;2198092;39;113996;-54
2021/06/27 02:54:37;;;;;;;;;;;;;;;22.74;56.16;101479.59;2191384;39;114004;-53
2021/06/27 02:56:09;;;;;;;;;;;;;;;22.74;56.15;101473.97;2194765;39;113611;-53
2021/06/27 02:57:41;;;;;;;;;;;;;;;22.74;56.08;101473.97;2197462;39;113710;-53
2021/06/27 02:59:13;;;;;;;;;;;;;;;22.71;55.82;101475.44;2198585;39;113756;-54
2021/06/27 03:00:45;;;;;;;;;;;;;;;22.74;56.29;101476.78;2195645;39;113635;-54
2021/06/27 03:02:16;;;;;;;;;;;;;;;22.72;56.13;101474.28;2195152;39;113987;-54
2021/06/27 03:03:51;;;;;;;;;;;;;;;22.73;56.08;101470.31;2197154;39;113648;-54
2021/06/27 03:05:24;;;;;;;;;;;;;;;22.73;56.20;101475.94;2198234;39;113840;-57
2021/06/27 03:06:56;;;;;;;;;;;;;;;22.76;55.96;101466.88;2193553;39;113876;-54
2021/06/27 03:08:27;;;;;;;;;;;;;;;22.74;56.12;101468.34;2192101;39;114471;-54
2021/06/27 03:09:59;;;;;;;;;;;;;;;22.73;56.11;101466.66;2199009;39;113864;-56
2021/06/27 03:11:31;;;;;;;;;;;;;;;22.73;56.03;101469.47;2203835;39;114736;-54
2021/06/27 03:13:02;;;;;;;;;;;;;;;22.73;56.21;101470.31;2198657;39;115235;-54
2021/06/27 03:14:34;;;;;;;;;;;;;;;22.74;56.13;101463.53;2198898;39;114509;-53
2021/06/27 03:16:06;;;;;;;;;;;;;;;22.74;56.32;101466.34;2198422;39;114906;-54
2021/06/27 03:17:39;;;;;;;;;;;;;;;22.74;56.38;101471.16;2191831;39;114937;-53
2021/06/27 03:19:14;;;;;;;;;;;;;;;22.75;56.21;101470.00;2190803;39;114181;-54
2021/06/27 03:20:46;;;;;;;;;;;;;;;22.75;56.29;101472.84;2200357;39;115399;-53
2021/06/27 03:22:17;;;;;;;;;;;;;;;22.74;56.18;101459.88;2198788;39;115053;-53
2021/06/27 03:23:49;;;;;;;;;;;;;;;22.74;56.10;101468.34;2192173;39;115197;-53
2021/06/27 03:25:25;;;;;;;;;;;;;;;22.73;56.08;101461.03;2190754;39;115175;-54
2021/06/27 03:26:57;;;;;;;;;;;;;;;22.73;56.28;101464.69;2197171;39;114770;-53
2021/06/27 03:28:33;;;;;;;;;;;;;;;22.75;56.13;101458.75;2197599;39;114892;-54
2021/06/27 03:30:06;;;;;;;;;;;;;;;22.73;55.99;101453.41;2198282;39;114993;-54
2021/06/27 03:31:38;;;;;;;;;;;;;;;22.73;56.15;101444.13;2200635;39;114907;-53
2021/06/27 03:33:10;;;;;;;;;;;;;;;22.74;56.09;101451.44;2191876;39;115761;-54
2021/06/27 03:34:42;;;;;;;;;;;;;;;22.71;56.11;101452.06;2193302;39;114576;-54
2021/06/27 03:36:13;;;;;;;;;;;;;;;22.71;56.29;101450.09;2199196;39;114585;-54
2021/06/27 03:37:55;;;;;;;;;;;;;;;22.72;56.36;101446.09;2198882;39;116833;-53
2021/06/27 03:39:26;;;;;;;;;;;;;;;22.74;56.15;101443.81;2192258;39;116174;-53
2021/06/27 03:40:58;;;;;;;;;;;;;;;22.74;56.33;101451.44;2198150;39;115877;-54
2021/06/27 03:42:30;;;;;;;;;;;;;;;22.72;56.27;101445.25;2198672;39;116072;-53
2021/06/27 03:44:02;;;;;;;;;;;;;;;22.72;56.15;101448.09;2204740;39;114521;-53
2021/06/27 03:45:33;;;;;;;;;;;;;;;22.74;56.20;101441.00;2201045;39;115582;-53
2021/06/27 03:47:05;;;;;;;;;;;;;;;22.74;56.36;101443.81;2195891;39;114695;-53
2021/06/27 03:48:37;;;;;;;;;;;;;;;22.73;56.24;101438.50;2192706;39;116217;-54
2021/06/27 03:50:09;;;;;;;;;;;;;;;22.74;56.25;101441.00;2195046;39;115531;-53
2021/06/27 03:51:41;;;;;;;;;;;;;;;22.74;56.29;101434.53;2192005;39;115481;-53
2021/06/27 03:53:13;;;;;;;;;;;;;;;22.74;56.39;101442.97;2196186;39;115637;-53
2021/06/27 03:54:44;;;;;;;;;;;;;;;22.73;56.47;101441.31;2198755;39;113985;-53
2021/06/27 03:56:17;;;;;;;;;;;;;;;22.72;56.29;101442.44;2198492;39;113702;-54
2021/06/27 03:57:49;;;;;;;;;;;;;;;22.75;56.39;101444.66;2191712;39;113703;-54
2021/06/27 03:59:21;;;;;;;;;;;;;;;22.73;56.13;101433.69;2189543;39;113674;-54
2021/06/27 04:00:53;;;;;;;;;;;;;;;22.74;56.17;101437.34;2196538;39;113678;-54
2021/06/27 04:02:25;;;;;;;;;;;;;;;22.72;56.26;101434.84;2191963;39;113968;-54
2021/06/27 04:03:57;;;;;;;;;;;;;;;22.73;56.16;101428.06;2196266;39;114576;-54
2021/06/27 04:05:28;;;;;;;;;;;;;;;22.73;56.30;101427.22;2198741;39;113868;-53
2021/06/27 04:07:00;;;;;;;;;;;;;;;22.74;56.44;101423.25;2199064;39;113778;-54
2021/06/27 04:08:32;;;;;;;;;;;;;;;22.76;56.43;101426.63;2191747;39;113887;-54
2021/06/27 04:10:05;;;;;;;;;;;;;;;22.75;56.37;101422.13;2188798;39;113828;-54
2021/06/27 04:11:36;;;;;;;;;;;;;;;22.75;56.27;101424.94;2189194;39;113872;-55
2021/06/27 04:13:08;;;;;;;;;;;;;;;22.72;56.48;101417.94;2190903;39;114037;-53
2021/06/27 04:14:40;;;;;;;;;;;;;;;22.73;56.36;101415.94;2200672;39;113939;-54
2021/06/27 04:16:12;;;;;;;;;;;;;;;22.75;56.29;101420.16;2202897;39;114924;-54
2021/06/27 04:17:44;;;;;;;;;;;;;;;22.74;56.32;101415.66;2203155;39;114937;-54
2021/06/27 04:19:16;;;;;;;;;;;;;;;22.75;56.28;101414.50;2198345;39;114160;-54
2021/06/27 04:20:47;;;;;;;;;;;;;;;22.76;56.34;101410.53;2198868;39;115600;-54
2021/06/27 04:22:19;;;;;;;;;;;;;;;22.76;56.35;101415.34;2191813;39;114891;-54
2021/06/27 04:23:51;;;;;;;;;;;;;;;22.75;56.31;101408.03;2189526;39;115171;-54
2021/06/27 04:25:23;;;;;;;;;;;;;;;22.75;56.37;101413.66;2195976;39;115291;-53
2021/06/27 04:26:54;;;;;;;;;;;;;;;22.75;56.26;101411.69;2198065;39;114392;-53
2021/06/27 04:28:26;;;;;;;;;;;;;;;22.75;56.42;101405.22;2198623;39;115007;-54
2021/06/27 04:29:58;;;;;;;;;;;;;;;22.76;56.40;101404.88;2191678;39;114837;-54
2021/06/27 04:31:30;;;;;;;;;;;;;;;22.75;56.19;101403.25;2195806;39;115194;-53
2021/06/27 04:33:02;;;;;;;;;;;;;;;22.74;56.34;101401.56;2190362;39;115813;-54
2021/06/27 04:34:34;;;;;;;;;;;;;;;22.75;56.28;101406.06;2187818;39;113942;-53
2021/06/27 04:36:06;;;;;;;;;;;;;;;22.75;56.41;101402.41;2197591;39;114926;-53
2021/06/27 04:37:37;;;;;;;;;;;;;;;22.76;56.33;101399.25;2198130;39;116061;-54
2021/06/27 04:39:10;;;;;;;;;;;;;;;22.73;56.07;101393.41;2193585;39;115430;-55
2021/06/27 04:40:41;;;;;;;;;;;;;;;22.74;56.27;101400.72;2187689;39;115567;-54
2021/06/27 04:42:13;;;;;;;;;;;;;;;22.74;56.39;101401.56;2194106;39;114051;-54
2021/06/27 04:43:44;;;;;;;;;;;;;;;22.74;56.22;101398.75;2197907;39;115586;-54
2021/06/27 04:45:16;;;;;;;;;;;;;;;22.76;56.10;101398.44;2198169;39;115940;-54
2021/06/27 04:46:48;;;;;;;;;;;;;;;22.76;56.25;101404.88;2199028;39;115971;-53
2021/06/27 04:48:20;;;;;;;;;;;;;;;22.76;56.35;101401.25;2198705;39;116153;-54
2021/06/27 04:49:51;;;;;;;;;;;;;;;22.76;56.47;101402.06;2195110;39;115705;-54
2021/06/27 04:51:23;;;;;;;;;;;;;;;22.74;56.33;101397.91;2194198;39;116145;-53
2021/06/27 04:52:55;;;;;;;;;;;;;;;22.75;56.42;101405.22;2196093;39;115261;-53
2021/06/27 04:54:26;;;;;;;;;;;;;;;22.75;56.35;101396.78;2200135;39;115587;-53
2021/06/27 04:55:58;;;;;;;;;;;;;;;22.73;56.31;101397.06;2197167;39;115777;-53
2021/06/27 04:57:31;;;;;;;;;;;;;;;22.73;56.35;101397.06;2198298;39;115570;-54
2021/06/27 04:59:02;;;;;;;;;;;;;;;22.72;56.36;101394.56;2199927;39;115805;-54
2021/06/27 05:00:34;;;;;;;;;;;;;;;22.72;56.34;101400.19;2195284;39;113642;-53
2021/06/27 05:02:07;;;;;;;;;;;;;;;22.73;56.43;101399.88;2199455;39;114416;-53
2021/06/27 05:03:39;;;;;;;;;;;;;;;22.73;56.53;101407.50;2198844;39;113865;-54
2021/06/27 05:05:11;;;;;;;;;;;;;;;22.72;56.31;101401.03;2200586;39;113915;-54
2021/06/27 05:06:42;;;;;;;;;;;;;;;22.72;56.38;101397.38;2194017;39;114106;-53
2021/06/27 05:08:14;;;;;;;;;;;;;;;22.73;56.44;101399.88;2195175;39;113921;-53
2021/06/27 05:09:46;;;;;;;;;;;;;;;22.74;56.42;101401.56;2197140;39;113854;-53
2021/06/27 05:11:17;;;;;;;;;;;;;;;22.73;56.43;101405.53;2197176;39;114208;-53
2021/06/27 05:12:49;;;;;;;;;;;;;;;22.73;56.66;101397.06;2198282;39;113833;-53
2021/06/27 05:14:21;;;;;;;;;;;;;;;22.73;56.39;101405.53;2197316;39;113963;-53
2021/06/27 05:15:53;;;;;;;;;;;;;;;22.76;56.56;101404.06;2198938;39;113795;-54
2021/06/27 05:17:25;;;;;;;;;;;;;;;22.74;56.40;101403.53;2201192;39;113723;-54
2021/06/27 05:18:56;;;;;;;;;;;;;;;22.75;56.64;101393.94;2197569;39;114181;-54
2021/06/27 05:20:28;;;;;;;;;;;;;;;22.74;56.59;101392.28;2202259;39;113787;-54
2021/06/27 05:22:00;;;;;;;;;;;;;;;22.74;56.60;101387.47;2198315;39;114798;-54
2021/06/27 05:23:32;;;;;;;;;;;;;;;22.72;56.41;101386.09;2196156;39;115013;-54
2021/06/27 05:25:04;;;;;;;;;;;;;;;22.74;56.46;101375.38;2199931;39;115041;-54
2021/06/27 05:26:35;;;;;;;;;;;;;;;22.72;56.42;101384.13;2197113;39;114166;-54
2021/06/27 05:28:07;;;;;;;;;;;;;;;22.74;56.90;101381.00;2198174;39;113876;-54
2021/06/27 05:29:38;;;;;;;;;;;;;;;22.72;56.61;101381.31;2193222;39;115401;-54
2021/06/27 05:31:10;;;;;;;;;;;;;;;22.72;56.62;101383.28;2198471;39;115101;-54
2021/06/27 05:32:42;;;;;;;;;;;;;;;22.72;56.54;101386.09;2195392;39;114823;-54
2021/06/27 05:34:13;;;;;;;;;;;;;;;22.73;56.29;101390.59;2197590;39;114916;-54
2021/06/27 05:35:45;;;;;;;;;;;;;;;22.70;56.68;101394.88;2197559;39;115053;-53
2021/06/27 05:37:17;;;;;;;;;;;;;;;22.71;56.46;101390.94;2196570;39;114966;-54
2021/06/27 05:38:49;;;;;;;;;;;;;;;22.72;56.77;101381.31;2195921;39;113825;-54
2021/06/27 05:40:20;;;;;;;;;;;;;;;22.71;56.44;101376.84;2190682;39;114938;-54
2021/06/27 05:41:52;;;;;;;;;;;;;;;22.71;56.83;101385.28;2199401;39;114754;-53
2021/06/27 05:43:24;;;;;;;;;;;;;;;22.72;56.62;101374.84;2190188;39;115900;-53
2021/06/27 05:44:56;;;;;;;;;;;;;;;22.72;56.86;101372.03;2196286;39;115833;-53
2021/06/27 05:46:27;;;;;;;;;;;;;;;22.71;56.87;101373.19;2195246;39;115796;-53
2021/06/27 05:47:59;;;;;;;;;;;;;;;22.72;56.83;101377.66;2199183;39;115913;-53
2021/06/27 05:49:31;;;;;;;;;;;;;;;22.72;56.92;101383.28;2196265;39;114671;-54
2021/06/27 05:51:03;;;;;;;;;;;;;;;22.73;56.71;101376.50;2194756;39;115690;-54
2021/06/27 05:52:34;;;;;;;;;;;;;;;22.70;56.84;101377.16;2193875;39;115442;-53
2021/06/27 05:54:06;;;;;;;;;;;;;;;22.71;57.02;101373.19;2192605;39;115520;-53
2021/06/27 05:55:38;;;;;;;;;;;;;;;22.71;56.92;101368.41;2190962;39;115435;-54
2021/06/27 05:57:10;;;;;;;;;;;;;;;22.70;56.99;101372.34;2194447;39;115297;-54
2021/06/27 05:58:42;;;;;;;;;;;;;;;22.71;56.97;101376.84;2187955;39;115603;-54
2021/06/27 06:00:14;;;;;;;;;;;;;;;22.72;56.92;101372.03;2190044;39;115728;-54
2021/06/27 06:01:45;;;;;;;;;;;;;;;22.73;56.96;101377.34;2190199;39;115780;-54
2021/06/27 06:03:17;;;;;;;;;;;;;;;22.69;56.93;101365.00;2201163;39;115936;-53
2021/06/27 06:04:49;;;;;;;;;;;;;;;22.72;56.85;101364.41;2190531;39;113891;-54
2021/06/27 06:06:20;;;;;;;;;;;;;;;22.71;56.84;101364.75;2195656;39;114011;-53
2021/06/27 06:07:53;;;;;;;;;;;;;;;22.71;57.05;101367.56;2197591;39;113611;-53
2021/06/27 06:09:25;;;;;;;;;;;;;;;22.72;56.99;101363.56;2191538;39;113891;-54
2021/06/27 06:10:57;;;;;;;;;;;;;;;22.70;57.00;101358.25;2193453;39;114513;-54
2021/06/27 06:12:28;;;;;;;;;;;;;;;22.72;57.34;101357.94;2186618;39;114072;-54
2021/06/27 06:14:00;;;;;;;;;;;;;;;22.69;56.96;101355.72;2185878;39;113818;-53
2021/06/27 06:15:32;;;;;;;;;;;;;;;22.73;57.12;101360.44;2195512;39;113744;-54
2021/06/27 06:17:07;;;;;;;;;;;;;;;22.71;57.19;101361.91;2193178;39;113864;-54
2021/06/27 06:18:42;;;;;;;;;;;;;;;22.70;57.36;101352.63;2186177;39;113716;-54
2021/06/27 06:20:14;;;;;;;;;;;;;;;22.70;57.27;101361.09;2187682;39;114241;-54
2021/06/27 06:21:47;;;;;;;;;;;;;;;22.71;57.38;101359.09;2188565;39;113912;-54
2021/06/27 06:23:19;;;;;;;;;;;;;;;22.69;57.30;101352.91;2183003;39;114187;-54
2021/06/27 06:24:51;;;;;;;;;;;;;;;22.70;57.49;101357.44;2193321;39;114264;-54
2021/06/27 06:26:22;;;;;;;;;;;;;;;22.71;57.49;101361.91;2197743;39;113650;-55
2021/06/27 06:27:54;;;;;;;;;;;;;;;22.70;57.57;101361.09;2194326;39;115218;-53
2021/06/27 06:29:26;;;;;;;;;;;;;;;22.71;57.53;101364.75;2197441;39;115128;-54
2021/06/27 06:30:58;;;;;;;;;;;;;;;22.68;57.51;101357.69;2193942;39;115128;-54
2021/06/27 06:32:29;;;;;;;;;;;;;;;22.71;57.52;101353.47;2198014;39;115477;-53
2021/06/27 06:34:01;;;;;;;;;;;;;;;22.74;57.59;101361.28;2198337;39;115366;-54
2021/06/27 06:35:33;;;;;;;;;;;;;;;22.73;57.52;101354.81;2186010;39;114649;-54
2021/06/27 06:37:05;;;;;;;;;;;;;;;22.73;57.68;101365.25;2193975;39;115128;-53
2021/06/27 06:38:36;;;;;;;;;;;;;;;22.71;57.73;101359.09;2197811;39;115628;-54
2021/06/27 06:40:08;;;;;;;;;;;;;;;22.72;57.56;101361.59;2197262;39;115747;-54
2021/06/27 06:41:40;;;;;;;;;;;;;;;22.69;57.65;101365.00;2191913;39;115039;-54
2021/06/27 06:43:12;;;;;;;;;;;;;;;22.70;57.61;101357.44;2193502;39;114856;-54
2021/06/27 06:44:44;;;;;;;;;;;;;;;22.71;57.69;101359.09;2198607;39;114957;-53
2021/06/27 06:46:15;;;;;;;;;;;;;;;22.72;57.88;101363.56;2198007;39;115268;-57
2021/06/27 06:47:47;;;;;;;;;;;;;;;22.69;57.83;101358.53;2200663;39;114244;-54
2021/06/27 06:49:19;;;;;;;;;;;;;;;22.72;57.93;101355.13;2198449;39;115893;-53
2021/06/27 06:50:50;;;;;;;;;;;;;;;22.71;57.92;101359.09;2198513;39;115501;-55
2021/06/27 06:52:22;;;;;;;;;;;;;;;22.70;58.13;101363.06;2198062;39;116190;-53
2021/06/27 06:53:55;;;;;;;;;;;;;;;22.70;57.98;101357.44;2194189;39;115760;-54
2021/06/27 06:55:27;;;;;;;;;;;;;;;22.72;58.34;101353.13;2190638;39;116357;-53
2021/06/27 06:56:59;;;;;;;;;;;;;;;22.67;58.14;101360.84;2184357;39;115416;-54
2021/06/27 06:58:31;;;;;;;;;;;;;;;22.72;58.13;101357.94;2196108;39;115642;-53
2021/06/27 07:00:03;;;;;;;;;;;;;;;22.70;58.27;101357.44;2198681;39;115522;-59
2021/06/27 07:01:35;;;;;;;;;;;;;;;22.71;58.27;101356.28;2198474;39;115771;-53
2021/06/27 07:03:08;;;;;;;;;;;;;;;22.71;58.31;101351.50;2197664;39;114691;-54
2021/06/27 07:04:40;;;;;;;;;;;;;;;22.70;58.20;101355.44;2197560;39;115018;-54
2021/06/27 07:06:13;;;;;;;;;;;;;;;22.70;58.43;101348.97;2192982;39;116402;-54
2021/06/27 07:07:45;;;;;;;;;;;;;;;22.70;58.22;101337.72;2192515;39;114528;-54
2021/06/27 07:09:20;;;;;;;;;;;;;;;22.69;58.42;101352.91;2199428;39;116610;-53
2021/06/27 07:10:52;;;;;;;;;;;;;;;22.70;58.44;101344.19;2197403;39;114321;-54
2021/06/27 07:12:24;;;;;;;;;;;;;;;22.69;58.45;101342.47;2192951;39;114532;-53
2021/06/27 07:13:55;;;;;;;;;;;;;;;22.72;58.39;101350.31;2194796;39;113873;-54
2021/06/27 07:15:27;;;;;;;;;;;;;;;22.70;58.47;101349.81;2191047;39;113698;-54
2021/06/27 07:16:59;;;;;;;;;;;;;;;22.71;58.43;101343.03;2197379;39;114009;-54
2021/06/27 07:18:31;;;;;;;;;;;;;;;22.72;58.58;101350.31;2197516;39;113973;-54
2021/06/27 07:20:03;;;;;;;;;;;;;;;22.72;58.36;101349.47;2189606;39;113788;-54
2021/06/27 07:21:35;;;;;;;;;;;;;;;22.73;58.62;101351.16;2195012;39;113733;-54
2021/06/27 07:23:07;;;;;;;;;;;;;;;22.73;58.77;101351.16;2198833;39;113955;-54
2021/06/27 07:24:38;;;;;;;;;;;;;;;22.71;58.79;101350.66;2198393;39;113749;-54
2021/06/27 07:26:11;;;;;;;;;;;;;;;22.71;58.49;101361.91;2202013;39;113652;-54
2021/06/27 07:27:43;;;;;;;;;;;;;;;22.71;58.59;101350.66;2198642;39;113697;-54
2021/06/27 07:29:14;;;;;;;;;;;;;;;22.71;58.62;101357.13;2198136;39;113784;-53
2021/06/27 07:30:46;;;;;;;;;;;;;;;22.68;58.49;101354.88;2194188;39;113957;-54
2021/06/27 07:32:18;;;;;;;;;;;;;;;22.71;58.57;101357.13;2189185;39;114992;-54
2021/06/27 07:33:49;;;;;;;;;;;;;;;22.71;58.69;101353.47;2201318;39;113869;-54
2021/06/27 07:35:21;;;;;;;;;;;;;;;22.70;58.58;101358.25;2187952;39;115298;-53
2021/06/27 07:36:53;;;;;;;;;;;;;;;22.72;58.71;101349.47;2196583;39;114915;-54
2021/06/27 07:38:24;;;;;;;;;;;;;;;22.70;58.61;101355.44;2190711;39;115938;-54
2021/06/27 07:39:56;;;;;;;;;;;;;;;22.72;58.50;101360.75;2192536;39;115035;-54
2021/06/27 07:41:28;;;;;;;;;;;;;;;22.71;58.56;101359.94;2188060;39;115087;-54
2021/06/27 07:43:00;;;;;;;;;;;;;;;22.72;58.75;101352.28;2187044;39;115336;-54
2021/06/27 07:44:31;;;;;;;;;;;;;;;22.71;58.61;101356.28;2186582;39;116578;-54
2021/06/27 07:46:03;;;;;;;;;;;;;;;22.70;58.41;101354.59;2189192;39;114850;-54
2021/06/27 07:47:35;;;;;;;;;;;;;;;22.72;58.53;101352.28;2190699;39;114415;-54